sensor_id;sensor_type;location;lat;lon;timestamp;pressure;altitude;pressure_sealevel;temperature;humidity
48872;BME280;36154;51.674;7.824;2023-05-09T00:01:58;101038.94;;;22.85;50.53
48872;BME280;36154;51.674;7.824;2023-05-09T00:04:26;101032.03;;;22.84;50.74
48872;BME280;36154;51.674;7.824;2023-05-09T00:06:52;101034.63;;;22.84;50.78
48872;BME280;36154;51.674;7.824;2023-05-09T00:09:17;101036.34;;;22.85;50.82
48872;BME280;36154;51.674;7.824;2023-05-09T00:11:43;101032.09;;;22.83;50.74
48872;BME280;36154;51.674;7.824;2023-05-09T00:14:09;101031.16;;;22.85;50.78
48872;BME280;36154;51.674;7.824;2023-05-09T00:16:36;101032.88;;;22.86;50.81
48872;BME280;36154;51.674;7.824;2023-05-09T00:19:02;101025.97;;;22.85;50.74
48872;BME280;36154;51.674;7.824;2023-05-09T00:21:28;101018.22;;;22.84;50.54
48872;BME280;36154;51.674;7.824;2023-05-09T00:23:53;101021.66;;;22.84;50.71
48872;BME280;36154;51.674;7.824;2023-05-09T00:26:18;101015.56;;;22.85;50.56
48872;BME280;36154;51.674;7.824;2023-05-09T00:28:43;101009.53;;;22.85;50.85
48872;BME280;36154;51.674;7.824;2023-05-09T00:31:09;101006.06;;;22.84;50.63
48872;BME280;36154;51.674;7.824;2023-05-09T00:33:34;101005.28;;;22.82;50.62
48872;BME280;36154;51.674;7.824;2023-05-09T00:35:59;101009.53;;;22.85;50.50
48872;BME280;36154;51.674;7.824;2023-05-09T00:38:25;101002.56;;;22.85;51.01
48872;BME280;36154;51.674;7.824;2023-05-09T00:40:50;100996.53;;;22.85;50.65
48872;BME280;36154;51.674;7.824;2023-05-09T00:43:16;100990.47;;;22.84;50.47
48872;BME280;36154;51.674;7.824;2023-05-09T00:45:42;100993.06;;;22.84;50.76
48872;BME280;36154;51.674;7.824;2023-05-09T00:48:08;100985.28;;;22.84;50.71
48872;BME280;36154;51.674;7.824;2023-05-09T00:50:33;100979.25;;;22.84;50.63
48872;BME280;36154;51.674;7.824;2023-05-09T00:52:59;100974.09;;;22.82;50.46
48872;BME280;36154;51.674;7.824;2023-05-09T00:55:24;100967.09;;;22.84;50.71
48872;BME280;36154;51.674;7.824;2023-05-09T00:57:50;100974.94;;;22.83;50.65
48872;BME280;36154;51.674;7.824;2023-05-09T01:00:16;100967.09;;;22.84;50.56
48872;BME280;36154;51.674;7.824;2023-05-09T01:02:45;100961.88;;;22.84;50.56
48872;BME280;36154;51.674;7.824;2023-05-09T01:05:13;100952.41;;;22.83;50.73
48872;BME280;36154;51.674;7.824;2023-05-09T01:07:51;100955.84;;;22.84;50.45
48872;BME280;36154;51.674;7.824;2023-05-09T01:10:43;100956.69;;;22.84;50.52
48872;BME280;36154;51.674;7.824;2023-05-09T01:13:23;100952.41;;;22.83;50.54
48872;BME280;36154;51.674;7.824;2023-05-09T01:16:02;100935.97;;;22.81;50.77
48872;BME280;36154;51.674;7.824;2023-05-09T01:18:42;100942.91;;;22.82;50.77
48872;BME280;36154;51.674;7.824;2023-05-09T01:21:16;100932.53;;;22.82;50.50
48872;BME280;36154;51.674;7.824;2023-05-09T01:23:59;100931.69;;;22.82;50.68
48872;BME280;36154;51.674;7.824;2023-05-09T01:31:37;100929.94;;;22.82;50.84
48872;BME280;36154;51.674;7.824;2023-05-09T01:34:04;100939.44;;;22.83;50.80
48872;BME280;36154;51.674;7.824;2023-05-09T01:36:31;100931.63;;;22.83;50.81
48872;BME280;36154;51.674;7.824;2023-05-09T01:38:59;100927.31;;;22.82;50.66
48872;BME280;36154;51.674;7.824;2023-05-09T01:41:28;100922.13;;;22.82;50.53
48872;BME280;36154;51.674;7.824;2023-05-09T01:43:55;100920.38;;;22.81;50.52
48872;BME280;36154;51.674;7.824;2023-05-09T01:46:24;100919.53;;;22.82;50.25
48872;BME280;36154;51.674;7.824;2023-05-09T01:48:51;100916.94;;;22.82;50.75
48872;BME280;36154;51.674;7.824;2023-05-09T01:51:18;100912.69;;;22.80;50.54
48872;BME280;36154;51.674;7.824;2023-05-09T01:53:47;100912.56;;;22.83;50.39
48872;BME280;36154;51.674;7.824;2023-05-09T01:56:13;100918.66;;;22.83;50.77
48872;BME280;36154;51.674;7.824;2023-05-09T01:58:39;100909.16;;;22.82;50.79
48872;BME280;36154;51.674;7.824;2023-05-09T02:01:06;100906.53;;;22.82;50.62
48872;BME280;36154;51.674;7.824;2023-05-09T02:03:33;100908.25;;;22.83;50.53
48872;BME280;36154;51.674;7.824;2023-05-09T02:05:59;100896.16;;;22.82;50.60
48872;BME280;36154;51.674;7.824;2023-05-09T02:08:26;100902.19;;;22.83;50.52
48872;BME280;36154;51.674;7.824;2023-05-09T02:10:51;100903.06;;;22.83;50.58
48872;BME280;36154;51.674;7.824;2023-05-09T02:13:17;100901.34;;;22.82;50.87
48872;BME280;36154;51.674;7.824;2023-05-09T02:15:42;100891.81;;;22.81;50.70
48872;BME280;36154;51.674;7.824;2023-05-09T02:18:08;100891.81;;;22.81;50.82
48872;BME280;36154;51.674;7.824;2023-05-09T02:20:34;100896.16;;;22.82;50.51
48872;BME280;36154;51.674;7.824;2023-05-09T02:23:00;100888.53;;;22.76;50.72
48872;BME280;36154;51.674;7.824;2023-05-09T02:25:26;100885.75;;;22.82;50.70
48872;BME280;36154;51.674;7.824;2023-05-09T02:27:52;100893.56;;;22.82;50.57
48872;BME280;36154;51.674;7.824;2023-05-09T02:30:22;100890.13;;;22.82;50.83
48872;BME280;36154;51.674;7.824;2023-05-09T02:32:50;100885.75;;;22.82;50.68
48872;BME280;36154;51.674;7.824;2023-05-09T02:35:18;100880.56;;;22.82;50.62
48872;BME280;36154;51.674;7.824;2023-05-09T02:37:44;100896.16;;;22.82;50.67
48872;BME280;36154;51.674;7.824;2023-05-09T02:40:10;100885.75;;;22.82;50.69
48872;BME280;36154;51.674;7.824;2023-05-09T02:42:36;100887.53;;;22.82;50.70
48872;BME280;36154;51.674;7.824;2023-05-09T02:45:01;100884.94;;;22.80;50.46
48872;BME280;36154;51.674;7.824;2023-05-09T02:47:27;100886.63;;;22.81;50.77
48872;BME280;36154;51.674;7.824;2023-05-09T02:49:52;100881.41;;;22.81;50.63
48872;BME280;36154;51.674;7.824;2023-05-09T02:52:17;100879.75;;;22.80;50.52
48872;BME280;36154;51.674;7.824;2023-05-09T02:54:43;100877.97;;;22.81;50.68
48872;BME280;36154;51.674;7.824;2023-05-09T02:57:08;100871.03;;;22.81;50.40
48872;BME280;36154;51.674;7.824;2023-05-09T02:59:33;100873.63;;;22.81;50.67
48872;BME280;36154;51.674;7.824;2023-05-09T03:01:59;100873.63;;;22.81;50.49
48872;BME280;36154;51.674;7.824;2023-05-09T03:04:24;100884.91;;;22.82;50.41
48872;BME280;36154;51.674;7.824;2023-05-09T03:06:50;100877.13;;;22.82;50.61
48872;BME280;36154;51.674;7.824;2023-05-09T03:09:15;100878.81;;;22.81;50.41
48872;BME280;36154;51.674;7.824;2023-05-09T03:11:41;100872.78;;;22.81;50.67
48872;BME280;36154;51.674;7.824;2023-05-09T03:14:06;100866.75;;;22.80;50.50
48872;BME280;36154;51.674;7.824;2023-05-09T03:16:35;100860.72;;;22.80;50.72
48872;BME280;36154;51.674;7.824;2023-05-09T03:19:02;100860.72;;;22.80;50.53
48872;BME280;36154;51.674;7.824;2023-05-09T03:21:27;100861.56;;;22.80;50.66
48872;BME280;36154;51.674;7.824;2023-05-09T03:23:52;100861.56;;;22.80;50.38
48872;BME280;36154;51.674;7.824;2023-05-09T03:26:18;100861.56;;;22.80;50.68
48872;BME280;36154;51.674;7.824;2023-05-09T03:28:43;100856.38;;;22.80;50.74
48872;BME280;36154;51.674;7.824;2023-05-09T03:31:08;100861.56;;;22.80;50.63
48872;BME280;36154;51.674;7.824;2023-05-09T03:33:33;100861.56;;;22.80;50.32
48872;BME280;36154;51.674;7.824;2023-05-09T03:35:59;100859.84;;;22.79;50.35
48872;BME280;36154;51.674;7.824;2023-05-09T03:38:24;100862.44;;;22.79;50.42
48872;BME280;36154;51.674;7.824;2023-05-09T03:40:51;100858.16;;;22.78;50.47
48872;BME280;36154;51.674;7.824;2023-05-09T03:43:17;100860.78;;;22.78;50.64
48872;BME280;36154;51.674;7.824;2023-05-09T03:45:43;100861.56;;;22.80;50.66
48872;BME280;36154;51.674;7.824;2023-05-09T03:48:08;100849.47;;;22.79;50.35
48872;BME280;36154;51.674;7.824;2023-05-09T03:50:36;100846.06;;;22.77;50.62
48872;BME280;36154;51.674;7.824;2023-05-09T03:53:02;100847.72;;;22.80;50.52
48872;BME280;36154;51.674;7.824;2023-05-09T03:55:28;100837.50;;;22.75;50.44
48872;BME280;36154;51.674;7.824;2023-05-09T03:57:53;100840.78;;;22.80;50.49
48872;BME280;36154;51.674;7.824;2023-05-09T04:00:19;100838.22;;;22.79;50.55
48872;BME280;36154;51.674;7.824;2023-05-09T04:02:46;100837.34;;;22.80;50.57
48872;BME280;36154;51.674;7.824;2023-05-09T04:05:11;100838.34;;;22.76;50.59
48872;BME280;36154;51.674;7.824;2023-05-09T04:07:37;100838.28;;;22.77;50.57
48872;BME280;36154;51.674;7.824;2023-05-09T04:10:02;100844.25;;;22.79;50.55
48872;BME280;36154;51.674;7.824;2023-05-09T04:12:27;100847.72;;;22.80;50.33
48872;BME280;36154;51.674;7.824;2023-05-09T04:14:53;100844.25;;;22.79;50.26
48872;BME280;36154;51.674;7.824;2023-05-09T04:17:18;100842.59;;;22.78;50.55
48872;BME280;36154;51.674;7.824;2023-05-09T04:19:43;100840.00;;;22.78;50.40
48872;BME280;36154;51.674;7.824;2023-05-09T04:22:08;100839.06;;;22.79;50.53
48872;BME280;36154;51.674;7.824;2023-05-09T04:24:34;100836.47;;;22.79;50.64
48872;BME280;36154;51.674;7.824;2023-05-09T04:27:00;100840.78;;;22.80;50.34
48872;BME280;36154;51.674;7.824;2023-05-09T04:29:26;100833.88;;;22.79;50.35
48872;BME280;36154;51.674;7.824;2023-05-09T04:31:51;100838.19;;;22.80;50.17
48872;BME280;36154;51.674;7.824;2023-05-09T04:34:17;100837.38;;;22.78;50.29
48872;BME280;36154;51.674;7.824;2023-05-09T04:36:42;100827.16;;;22.74;50.43
48872;BME280;36154;51.674;7.824;2023-05-09T04:39:08;100839.06;;;22.79;50.26
48872;BME280;36154;51.674;7.824;2023-05-09T04:41:35;100844.25;;;22.79;50.16
48872;BME280;36154;51.674;7.824;2023-05-09T04:44:00;100829.66;;;22.77;50.30
48872;BME280;36154;51.674;7.824;2023-05-09T04:46:26;100832.19;;;22.78;50.05
48872;BME280;36154;51.674;7.824;2023-05-09T04:48:52;100832.97;;;22.80;50.50
48872;BME280;36154;51.674;7.824;2023-05-09T04:51:17;100826.94;;;22.80;50.24
48872;BME280;36154;51.674;7.824;2023-05-09T04:53:43;100830.38;;;22.80;50.48
48872;BME280;36154;51.674;7.824;2023-05-09T04:56:08;100824.34;;;22.80;50.45
48872;BME280;36154;51.674;7.824;2023-05-09T04:58:34;100820.03;;;22.79;50.26
48872;BME280;36154;51.674;7.824;2023-05-09T05:01:03;100814.81;;;22.80;50.39
48872;BME280;36154;51.674;7.824;2023-05-09T05:03:28;100817.41;;;22.80;50.67
48872;BME280;36154;51.674;7.824;2023-05-09T05:05:53;100814.81;;;22.80;50.47
48872;BME280;36154;51.674;7.824;2023-05-09T05:08:19;100815.63;;;22.81;50.45
48872;BME280;36154;51.674;7.824;2023-05-09T05:10:44;100811.28;;;22.81;50.27
48872;BME280;36154;51.674;7.824;2023-05-09T05:13:09;100801.81;;;22.80;50.02
48872;BME280;36154;51.674;7.824;2023-05-09T05:15:34;100803.50;;;22.81;50.32
48872;BME280;36154;51.674;7.824;2023-05-09T05:18:00;100805.25;;;22.81;50.29
48872;BME280;36154;51.674;7.824;2023-05-09T05:20:27;100808.69;;;22.81;50.49
48872;BME280;36154;51.674;7.824;2023-05-09T05:22:52;100799.22;;;22.80;50.41
48872;BME280;36154;51.674;7.824;2023-05-09T05:25:19;100796.59;;;22.82;50.41
48872;BME280;36154;51.674;7.824;2023-05-09T05:27:45;100801.78;;;22.82;50.19
48872;BME280;36154;51.674;7.824;2023-05-09T05:30:10;100794.84;;;22.81;50.34
48872;BME280;36154;51.674;7.824;2023-05-09T05:32:36;100792.25;;;22.81;50.37
48872;BME280;36154;51.674;7.824;2023-05-09T05:35:02;100790.50;;;22.81;50.37
48872;BME280;36154;51.674;7.824;2023-05-09T05:37:29;100792.22;;;22.82;50.39
48872;BME280;36154;51.674;7.824;2023-05-09T05:39:54;100786.19;;;22.82;50.47
48872;BME280;36154;51.674;7.824;2023-05-09T05:42:19;100784.44;;;22.82;50.28
48872;BME280;36154;51.674;7.824;2023-05-09T05:44:45;100780.09;;;22.81;50.21
48872;BME280;36154;51.674;7.824;2023-05-09T05:47:10;100778.34;;;22.83;50.47
48872;BME280;36154;51.674;7.824;2023-05-09T05:49:35;100773.22;;;22.80;50.27
48872;BME280;36154;51.674;7.824;2023-05-09T05:52:00;100771.63;;;22.76;50.18
48872;BME280;36154;51.674;7.824;2023-05-09T05:54:26;100776.66;;;22.82;50.58
48872;BME280;36154;51.674;7.824;2023-05-09T05:56:51;100778.34;;;22.83;50.22
48872;BME280;36154;51.674;7.824;2023-05-09T05:59:16;100781.84;;;22.82;50.15
48872;BME280;36154;51.674;7.824;2023-05-09T06:01:41;100778.34;;;22.83;50.24
48872;BME280;36154;51.674;7.824;2023-05-09T06:04:07;100776.66;;;22.82;50.22
48872;BME280;36154;51.674;7.824;2023-05-09T06:06:32;100767.09;;;22.83;50.37
48872;BME280;36154;51.674;7.824;2023-05-09T06:08:58;100772.28;;;22.83;50.44
48872;BME280;36154;51.674;7.824;2023-05-09T06:11:23;100761.06;;;22.82;50.26
48872;BME280;36154;51.674;7.824;2023-05-09T06:13:48;100770.56;;;22.83;50.32
48872;BME280;36154;51.674;7.824;2023-05-09T06:16:14;100773.16;;;22.83;50.24
48872;BME280;36154;51.674;7.824;2023-05-09T06:18:39;100766.25;;;22.82;50.44
48872;BME280;36154;51.674;7.824;2023-05-09T06:21:05;100762.78;;;22.83;50.36
48872;BME280;36154;51.674;7.824;2023-05-09T06:23:31;100758.47;;;22.82;49.93
48872;BME280;36154;51.674;7.824;2023-05-09T06:25:57;100748.06;;;22.82;50.29
48872;BME280;36154;51.674;7.824;2023-05-09T06:28:22;100752.38;;;22.83;50.28
48872;BME280;36154;51.674;7.824;2023-05-09T06:30:47;100753.22;;;22.84;50.28
48872;BME280;36154;51.674;7.824;2023-05-09T06:33:12;100750.66;;;22.82;50.19
48872;BME280;36154;51.674;7.824;2023-05-09T06:35:38;100746.31;;;22.83;50.09
48872;BME280;36154;51.674;7.824;2023-05-09T06:38:03;100748.06;;;22.82;50.40
48872;BME280;36154;51.674;7.824;2023-05-09T06:40:28;100742.00;;;22.83;50.67
48872;BME280;36154;51.674;7.824;2023-05-09T06:42:54;100746.25;;;22.84;50.43
48872;BME280;36154;51.674;7.824;2023-05-09T06:45:19;100743.66;;;22.84;50.14
48872;BME280;36154;51.674;7.824;2023-05-09T06:47:45;100735.03;;;22.84;50.41
48872;BME280;36154;51.674;7.824;2023-05-09T06:50:10;100731.59;;;22.83;50.36
48872;BME280;36154;51.674;7.824;2023-05-09T06:52:35;100731.59;;;22.83;50.15
48872;BME280;36154;51.674;7.824;2023-05-09T06:55:01;100722.97;;;22.81;50.33
48872;BME280;36154;51.674;7.824;2023-05-09T06:57:27;100726.41;;;22.83;50.30
48872;BME280;36154;51.674;7.824;2023-05-09T06:59:52;100707.34;;;22.83;50.15
48872;BME280;36154;51.674;7.824;2023-05-09T07:02:17;100710.81;;;22.83;50.45
48872;BME280;36154;51.674;7.824;2023-05-09T07:04:42;100704.75;;;22.83;50.00
48872;BME280;36154;51.674;7.824;2023-05-09T07:07:08;100698.66;;;22.84;50.37
48872;BME280;36154;51.674;7.824;2023-05-09T07:09:33;100695.22;;;22.83;50.42
48872;BME280;36154;51.674;7.824;2023-05-09T07:11:59;100696.91;;;22.84;50.21
48872;BME280;36154;51.674;7.824;2023-05-09T07:14:25;100688.31;;;22.82;50.50
48872;BME280;36154;51.674;7.824;2023-05-09T07:16:51;100690.91;;;22.82;50.33
48872;BME280;36154;51.674;7.824;2023-05-09T07:19:16;100691.69;;;22.84;50.22
48872;BME280;36154;51.674;7.824;2023-05-09T07:21:41;100684.84;;;22.83;50.15
48872;BME280;36154;51.674;7.824;2023-05-09T07:24:09;100686.50;;;22.84;50.46
48872;BME280;36154;51.674;7.824;2023-05-09T07:26:35;100690.03;;;22.83;50.18
48872;BME280;36154;51.674;7.824;2023-05-09T07:29:00;100686.50;;;22.84;50.13
48872;BME280;36154;51.674;7.824;2023-05-09T07:31:25;100677.13;;;22.80;50.25
48872;BME280;36154;51.674;7.824;2023-05-09T07:33:51;100675.28;;;22.84;50.13
48872;BME280;36154;51.674;7.824;2023-05-09T07:36:16;100667.53;;;22.82;50.52
48872;BME280;36154;51.674;7.824;2023-05-09T07:38:41;100664.88;;;22.84;50.42
48872;BME280;36154;51.674;7.824;2023-05-09T07:41:07;100673.53;;;22.84;50.38
48872;BME280;36154;51.674;7.824;2023-05-09T07:43:32;100665.72;;;22.84;50.21
48872;BME280;36154;51.674;7.824;2023-05-09T07:45:58;100667.44;;;22.85;50.04
48872;BME280;36154;51.674;7.824;2023-05-09T07:48:23;100661.41;;;22.85;50.50
48872;BME280;36154;51.674;7.824;2023-05-09T07:50:48;100660.53;;;22.84;50.36
48872;BME280;36154;51.674;7.824;2023-05-09T07:53:16;100652.72;;;22.84;50.22
48872;BME280;36154;51.674;7.824;2023-05-09T07:55:41;100657.03;;;22.85;50.46
48872;BME280;36154;51.674;7.824;2023-05-09T07:58:08;100644.94;;;22.84;50.13
48872;BME280;36154;51.674;7.824;2023-05-09T08:00:34;100636.38;;;22.82;50.23
48872;BME280;36154;51.674;7.824;2023-05-09T08:03:00;100643.22;;;22.85;50.37
48872;BME280;36154;51.674;7.824;2023-05-09T08:05:25;100638.91;;;22.84;50.41
48872;BME280;36154;51.674;7.824;2023-05-09T08:07:50;100625.88;;;22.85;50.38
48872;BME280;36154;51.674;7.824;2023-05-09T08:10:16;100628.47;;;22.85;50.35
48872;BME280;36154;51.674;7.824;2023-05-09T08:12:41;100631.00;;;22.87;50.14
48872;BME280;36154;51.674;7.824;2023-05-09T08:15:07;100609.50;;;22.83;50.06
48872;BME280;36154;51.674;7.824;2023-05-09T08:17:32;100615.47;;;22.85;50.55
48872;BME280;36154;51.674;7.824;2023-05-09T08:19:57;100607.75;;;22.84;50.27
48872;BME280;36154;51.674;7.824;2023-05-09T08:22:22;100605.09;;;22.85;50.19
48872;BME280;36154;51.674;7.824;2023-05-09T08:24:48;100599.88;;;22.85;50.30
48872;BME280;36154;51.674;7.824;2023-05-09T08:27:14;100590.38;;;22.84;50.25
48872;BME280;36154;51.674;7.824;2023-05-09T08:29:40;100599.78;;;22.88;50.12
48872;BME280;36154;51.674;7.824;2023-05-09T08:32:05;100594.56;;;22.88;50.39
48872;BME280;36154;51.674;7.824;2023-05-09T08:34:31;100593.72;;;22.88;50.26
48872;BME280;36154;51.674;7.824;2023-05-09T08:36:59;100591.91;;;22.90;50.38
48872;BME280;36154;51.674;7.824;2023-05-09T08:39:24;100593.66;;;22.89;50.46
48872;BME280;36154;51.674;7.824;2023-05-09T08:41:50;100585.84;;;22.89;50.34
48872;BME280;36154;51.674;7.824;2023-05-09T08:44:17;100588.41;;;22.91;50.31
48872;BME280;36154;51.674;7.824;2023-05-09T08:46:43;100582.38;;;22.91;49.93
48872;BME280;36154;51.674;7.824;2023-05-09T08:49:09;100590.94;;;22.93;49.90
48872;BME280;36154;51.674;7.824;2023-05-09T08:51:35;100590.94;;;22.93;50.01
48872;BME280;36154;51.674;7.824;2023-05-09T08:54:04;100581.41;;;22.93;50.22
48872;BME280;36154;51.674;7.824;2023-05-09T08:56:29;100591.81;;;22.93;50.14
48872;BME280;36154;51.674;7.824;2023-05-09T08:58:55;100578.81;;;22.93;49.94
48872;BME280;36154;51.674;7.824;2023-05-09T09:01:21;100572.75;;;22.93;50.28
48872;BME280;36154;51.674;7.824;2023-05-09T09:03:47;100573.69;;;22.92;50.10
48872;BME280;36154;51.674;7.824;2023-05-09T09:06:14;100577.94;;;22.93;50.11
48872;BME280;36154;51.674;7.824;2023-05-09T09:08:41;100570.28;;;22.89;50.20
48872;BME280;36154;51.674;7.824;2023-05-09T09:11:12;100568.47;;;22.92;50.03
48872;BME280;36154;51.674;7.824;2023-05-09T09:13:41;100571.06;;;22.92;49.97
48872;BME280;36154;51.674;7.824;2023-05-09T09:16:15;100566.78;;;22.91;49.88
48872;BME280;36154;51.674;7.824;2023-05-09T09:18:43;100565.00;;;22.91;50.08
48872;BME280;36154;51.674;7.824;2023-05-09T09:21:11;100568.47;;;22.92;50.25
48872;BME280;36154;51.674;7.824;2023-05-09T09:23:38;100562.41;;;22.91;50.12
48872;BME280;36154;51.674;7.824;2023-05-09T09:26:05;100563.28;;;22.92;49.86
48872;BME280;36154;51.674;7.824;2023-05-09T09:28:31;100551.19;;;22.91;50.12
48872;BME280;36154;51.674;7.824;2023-05-09T09:30:56;100558.09;;;22.92;50.03
48872;BME280;36154;51.674;7.824;2023-05-09T09:33:23;100549.38;;;22.93;49.93
48872;BME280;36154;51.674;7.824;2023-05-09T09:35:50;100554.56;;;22.93;50.11
48872;BME280;36154;51.674;7.824;2023-05-09T09:38:17;100541.56;;;22.93;50.00
48872;BME280;36154;51.674;7.824;2023-05-09T09:40:56;100545.03;;;22.93;50.10
48872;BME280;36154;51.674;7.824;2023-05-09T09:43:31;100532.94;;;22.92;50.30
48872;BME280;36154;51.674;7.824;2023-05-09T09:46:00;100528.59;;;22.93;50.02
48872;BME280;36154;51.674;7.824;2023-05-09T09:48:27;100526.91;;;22.92;50.00
48872;BME280;36154;51.674;7.824;2023-05-09T09:50:55;100532.94;;;22.92;50.13
48872;BME280;36154;51.674;7.824;2023-05-09T09:53:26;100520.78;;;22.93;50.02
48872;BME280;36154;51.674;7.824;2023-05-09T09:55:54;100518.25;;;22.91;50.30
48872;BME280;36154;51.674;7.824;2023-05-09T09:58:19;100515.66;;;22.91;50.10
48872;BME280;36154;51.674;7.824;2023-05-09T10:03:40;100502.59;;;22.93;49.92
48872;BME280;36154;51.674;7.824;2023-05-09T10:06:10;100500.94;;;22.92;50.10
48872;BME280;36154;51.674;7.824;2023-05-09T10:08:36;100502.59;;;22.93;50.25
48872;BME280;36154;51.674;7.824;2023-05-09T10:11:02;100508.66;;;22.93;50.20
48872;BME280;36154;51.674;7.824;2023-05-09T10:13:28;100504.31;;;22.94;49.98
48872;BME280;36154;51.674;7.824;2023-05-09T10:15:54;100499.16;;;22.92;50.14
48872;BME280;36154;51.674;7.824;2023-05-09T10:18:25;100502.53;;;22.94;50.16
48872;BME280;36154;51.674;7.824;2023-05-09T10:20:52;100493.91;;;22.94;50.22
48872;BME280;36154;51.674;7.824;2023-05-09T10:23:18;100492.91;;;22.96;49.97
48872;BME280;36154;51.674;7.824;2023-05-09T10:25:53;100486.84;;;22.97;50.13
48872;BME280;36154;51.674;7.824;2023-05-09T10:28:22;100481.56;;;22.99;50.16
48872;BME280;36154;51.674;7.824;2023-05-09T10:33:42;100471.19;;;22.99;49.84
48872;BME280;36154;51.674;7.824;2023-05-09T10:36:10;100471.19;;;22.99;50.09
48872;BME280;36154;51.674;7.824;2023-05-09T10:38:37;100472.88;;;23.00;49.95
48872;BME280;36154;51.674;7.824;2023-05-09T10:41:03;100465.97;;;22.99;50.04
48872;BME280;36154;51.674;7.824;2023-05-09T10:43:31;100458.13;;;23.00;49.76
48872;BME280;36154;51.674;7.824;2023-05-09T10:45:56;100454.69;;;23.00;49.58
48872;BME280;36154;51.674;7.824;2023-05-09T10:48:22;100450.34;;;23.00;50.08
48872;BME280;36154;51.674;7.824;2023-05-09T10:50:49;100449.41;;;23.01;50.08
48872;BME280;36154;51.674;7.824;2023-05-09T10:53:14;100445.06;;;23.02;50.17
48872;BME280;36154;51.674;7.824;2023-05-09T10:55:57;100434.69;;;23.02;50.12
48872;BME280;36154;51.674;7.824;2023-05-09T10:58:31;100438.94;;;23.03;49.79
48872;BME280;36154;51.674;7.824;2023-05-09T11:01:05;100436.34;;;23.03;50.10
48872;BME280;36154;51.674;7.824;2023-05-09T11:03:53;100424.16;;;23.05;49.88
48872;BME280;36154;51.674;7.824;2023-05-09T11:06:42;100415.44;;;23.06;49.98
48872;BME280;36154;51.674;7.824;2023-05-09T11:14:47;100411.94;;;23.07;50.23
48872;BME280;36154;51.674;7.824;2023-05-09T11:22:38;100397.06;;;23.11;50.50
48872;BME280;36154;51.674;7.824;2023-05-09T11:28:28;100394.44;;;23.11;51.00
48872;BME280;36154;51.674;7.824;2023-05-09T11:31:08;100391.09;;;23.08;51.38
48872;BME280;36154;51.674;7.824;2023-05-09T11:33:37;100389.19;;;23.12;51.09
48872;BME280;36154;51.674;7.824;2023-05-09T11:36:26;100384.00;;;23.12;51.24
48872;BME280;36154;51.674;7.824;2023-05-09T11:39:23;100374.50;;;23.11;51.15
48872;BME280;36154;51.674;7.824;2023-05-09T11:41:49;100373.59;;;23.12;51.40
48872;BME280;36154;51.674;7.824;2023-05-09T11:44:19;100368.47;;;23.11;51.27
48872;BME280;36154;51.674;7.824;2023-05-09T11:46:46;100351.88;;;23.13;51.71
48872;BME280;36154;51.674;7.824;2023-05-09T11:49:12;100371.78;;;23.14;51.49
48872;BME280;36154;51.674;7.824;2023-05-09T11:51:37;100371.69;;;23.16;51.71
48872;BME280;36154;51.674;7.824;2023-05-09T11:54:03;100360.41;;;23.17;51.73
48872;BME280;36154;51.674;7.824;2023-05-09T11:56:29;100357.75;;;23.18;51.85
48872;BME280;36154;51.674;7.824;2023-05-09T11:58:55;100360.34;;;23.18;51.51
48872;BME280;36154;51.674;7.824;2023-05-09T12:01:21;100339.69;;;23.15;51.73
48872;BME280;36154;51.674;7.824;2023-05-09T12:03:46;100347.19;;;23.21;51.76
48872;BME280;36154;51.674;7.824;2023-05-09T12:06:16;100329.91;;;23.20;51.87
48872;BME280;36154;51.674;7.824;2023-05-09T12:08:43;100336.66;;;23.24;51.55
48872;BME280;36154;51.674;7.824;2023-05-09T12:11:09;100323.72;;;23.23;51.68
48872;BME280;36154;51.674;7.824;2023-05-09T12:13:34;100327.03;;;23.26;51.73
48872;BME280;36154;51.674;7.824;2023-05-09T12:16:03;100326.13;;;23.27;51.44
48872;BME280;36154;51.674;7.824;2023-05-09T12:18:28;100331.31;;;23.27;51.67
48872;BME280;36154;51.674;7.824;2023-05-09T12:20:53;100326.97;;;23.28;51.60
48872;BME280;36154;51.674;7.824;2023-05-09T12:23:19;100320.94;;;23.27;51.71
48872;BME280;36154;51.674;7.824;2023-05-09T12:28:12;100326.13;;;23.27;51.78
48872;BME280;36154;51.674;7.824;2023-05-09T12:30:38;100320.94;;;23.27;51.78
48872;BME280;36154;51.674;7.824;2023-05-09T12:33:04;100314.03;;;23.26;51.86
48872;BME280;36154;51.674;7.824;2023-05-09T12:35:29;100315.72;;;23.27;51.46
48872;BME280;36154;51.674;7.824;2023-05-09T12:37:56;100310.53;;;23.27;51.80
48872;BME280;36154;51.674;7.824;2023-05-09T12:40:22;100302.81;;;23.26;51.67
48872;BME280;36154;51.674;7.824;2023-05-09T12:42:48;100310.53;;;23.27;51.66
48872;BME280;36154;51.674;7.824;2023-05-09T12:45:14;100307.03;;;23.29;51.72
48872;BME280;36154;51.674;7.824;2023-05-09T12:47:39;100307.03;;;23.29;51.56
48872;BME280;36154;51.674;7.824;2023-05-09T12:50:09;100299.22;;;23.29;51.66
48872;BME280;36154;51.674;7.824;2023-05-09T12:52:37;100297.47;;;23.29;51.85
48872;BME280;36154;51.674;7.824;2023-05-09T12:57:32;100293.16;;;23.28;51.79
48872;BME280;36154;51.674;7.824;2023-05-09T12:59:59;100290.56;;;23.28;51.59
48872;BME280;36154;51.674;7.824;2023-05-09T13:02:25;100292.25;;;23.29;51.34
48872;BME280;36154;51.674;7.824;2023-05-09T13:05:27;100293.97;;;23.30;51.49
48872;BME280;36154;51.674;7.824;2023-05-09T13:07:55;100285.38;;;23.28;51.66
48872;BME280;36154;51.674;7.824;2023-05-09T13:10:26;100283.63;;;23.29;51.39
48872;BME280;36154;51.674;7.824;2023-05-09T13:12:53;100276.66;;;23.29;51.34
48872;BME280;36154;51.674;7.824;2023-05-09T13:15:20;100262.22;;;23.23;51.32
48872;BME280;36154;51.674;7.824;2023-05-09T13:17:50;100274.13;;;23.27;51.50
48872;BME280;36154;51.674;7.824;2023-05-09T13:20:16;100270.63;;;23.29;51.25